createdAt,value
2019-05-16T00:03:53.930Z,61.25
2019-05-16T00:06:23.550Z,61.28
2019-05-16T00:08:53.280Z,61.30
2019-05-16T00:11:22.788Z,61.37
2019-05-16T00:13:52.165Z,61.31
2019-05-16T00:21:58.133Z,61.28
2019-05-16T00:25:08.659Z,61.38
2019-05-16T00:27:39.446Z,61.34
2019-05-16T00:33:12.003Z,61.09
2019-05-16T00:35:41.992Z,61.01
2019-05-16T00:38:11.526Z,61.02
2019-05-16T00:43:37.895Z,61.04
2019-05-16T00:46:08.351Z,61.12
2019-05-16T00:48:39.607Z,61.02
2019-05-16T00:51:48.645Z,61.34
2019-05-16T00:54:18.610Z,61.14
2019-05-16T00:57:29.893Z,61.17
2019-05-16T01:00:12.119Z,61.04
2019-05-16T01:03:20.851Z,61.15
2019-05-16T01:08:39.005Z,61.03
2019-05-16T01:11:08.416Z,61.07
2019-05-16T01:13:38.160Z,60.99
2019-05-16T01:16:08.960Z,61.02
2019-05-16T01:24:33.533Z,61.04
2019-05-16T01:27:02.960Z,61.04
2019-05-16T01:32:31.858Z,61.19
2019-05-16T01:34:59.742Z,61.25
2019-05-16T01:37:29.139Z,61.39
2019-05-16T01:39:58.864Z,61.43
2019-05-16T01:42:28.220Z,61.55
2019-05-16T01:44:57.951Z,61.96
2019-05-16T01:47:29.319Z,61.88
2019-05-16T01:49:59.062Z,61.86
2019-05-16T01:52:29.072Z,61.92
2019-05-16T01:57:55.712Z,61.63
2019-05-16T02:00:27.943Z,61.86
2019-05-16T02:02:57.934Z,61.76
2019-05-16T02:05:28.021Z,61.78
2019-05-16T02:07:59.410Z,61.95
2019-05-16T02:13:34.920Z,61.37
2019-05-16T02:18:43.363Z,61.42
2019-05-16T02:21:12.807Z,61.60
2019-05-16T02:24:02.168Z,61.48
2019-05-16T02:26:32.400Z,61.46
2019-05-16T02:29:01.953Z,61.55
2019-05-16T02:31:31.540Z,61.68
2019-05-16T02:34:04.937Z,61.67
2019-05-16T02:37:24.462Z,61.37
2019-05-16T02:39:45.176Z,61.18
2019-05-16T02:42:14.724Z,61.33
2019-05-16T02:44:44.188Z,61.15
2019-05-16T02:50:02.987Z,61.36
2019-05-16T02:58:51.661Z,61.22
2019-05-16T03:01:21.603Z,61.42
2019-05-16T03:07:03.055Z,60.93
2019-05-16T03:25:01.124Z,60.18
2019-05-16T03:30:23.630Z,59.87
2019-05-16T03:32:54.824Z,59.94
2019-05-16T03:35:24.471Z,60.29
2019-05-16T03:40:55.146Z,60.24
2019-05-16T03:44:03.801Z,59.94
2019-05-16T03:47:12.996Z,59.69
2019-05-16T03:52:23.513Z,59.42
2019-05-16T03:54:52.885Z,59.27
2019-05-16T03:57:22.511Z,58.97
2019-05-16T04:03:06.626Z,59.11
2019-05-16T04:05:35.983Z,59.48
2019-05-16T04:08:44.709Z,59.38
2019-05-16T04:11:18.089Z,59.16
2019-05-16T04:13:45.461Z,58.95
2019-05-16T04:25:07.269Z,58.69
2019-05-16T04:28:15.953Z,58.38
2019-05-16T04:30:45.602Z,58.07
2019-05-16T04:33:15.002Z,57.92
2019-05-16T04:36:23.870Z,57.75
2019-05-16T04:38:53.287Z,57.54
2019-05-16T04:41:22.743Z,57.02
2019-05-16T04:43:52.250Z,56.04
2019-05-16T04:46:21.816Z,55.71
2019-05-16T04:48:51.411Z,53.63
2019-05-16T04:51:22.013Z,45.99
2019-05-16T04:53:52.518Z,42.83
2019-05-16T04:57:01.753Z,38.62
2019-05-16T04:59:52.413Z,39.06
2019-05-16T05:11:21.657Z,44.03
2019-05-16T05:13:52.258Z,45.68
2019-05-16T05:16:21.638Z,46.25
2019-05-16T05:18:51.648Z,46.80
2019-05-16T05:21:23.007Z,45.38
2019-05-16T05:23:52.412Z,46.65
2019-05-16T05:26:41.604Z,46.87
2019-05-16T05:32:14.686Z,45.75
2019-05-16T05:34:46.182Z,45.47
2019-05-16T05:37:15.885Z,46.33
2019-05-16T05:39:45.598Z,47.33
2019-05-16T05:42:15.122Z,46.47
2019-05-16T05:45:24.185Z,45.48
2019-05-16T05:51:00.206Z,44.32
2019-05-16T05:53:30.305Z,44.32
2019-05-16T05:56:01.550Z,44.48
2019-05-16T05:58:31.211Z,42.45
2019-05-16T06:04:02.473Z,43.39
2019-05-16T06:06:31.977Z,42.51
2019-05-16T06:09:52.472Z,43.35
2019-05-16T06:12:12.271Z,42.39
2019-05-16T06:14:41.980Z,43.02
2019-05-16T06:17:13.388Z,41.28
2019-05-16T06:19:43.246Z,41.23
2019-05-16T06:22:12.746Z,40.20
2019-05-16T06:27:37.468Z,41.17
2019-05-16T06:30:46.328Z,41.52
2019-05-16T06:33:16.039Z,38.26
2019-05-16T06:36:24.789Z,38.30
2019-05-16T06:38:54.194Z,37.05
2019-05-16T06:41:24.054Z,37.49
2019-05-16T06:43:53.554Z,36.97
2019-05-16T06:46:23.065Z,37.82
2019-05-16T06:49:31.823Z,36.34
2019-05-16T06:52:03.863Z,34.29
2019-05-16T06:54:33.258Z,33.44
2019-05-16T06:57:02.972Z,34.81
2019-05-16T07:02:41.408Z,34.55
2019-05-16T07:05:50.730Z,35.12
2019-05-16T07:08:22.093Z,34.44
2019-05-16T07:13:26.944Z,33.79
2019-05-16T07:19:10.755Z,31.48
2019-05-16T07:21:40.316Z,32.07
2019-05-16T07:24:10.902Z,32.36
2019-05-16T07:27:21.899Z,33.19
2019-05-16T07:29:52.603Z,31.22
2019-05-16T07:32:22.200Z,33.62
2019-05-16T07:34:51.997Z,34.22
2019-05-16T07:37:21.603Z,32.89
2019-05-16T07:39:51.361Z,32.67
2019-05-16T07:42:22.760Z,32.06
2019-05-16T07:45:11.507Z,31.88
2019-05-16T07:47:43.284Z,31.62
2019-05-16T07:50:51.987Z,29.31
2019-05-16T07:53:21.843Z,31.83
2019-05-16T07:59:00.914Z,29.88
2019-05-16T08:01:31.115Z,30.21
2019-05-16T08:04:00.747Z,32.12
2019-05-16T08:09:26.323Z,32.80
2019-05-16T08:15:05.205Z,32.54
2019-05-16T08:21:01.635Z,32.84
2019-05-16T08:23:31.364Z,33.03
2019-05-16T08:26:01.436Z,32.64
2019-05-16T08:31:21.744Z,32.79
2019-05-16T08:33:55.275Z,32.80
2019-05-16T08:36:24.979Z,32.16
2019-05-16T08:41:51.890Z,30.50
2019-05-16T08:44:21.885Z,31.32
2019-05-16T08:52:23.590Z,30.59
2019-05-16T08:54:53.204Z,30.59
2019-05-16T09:01:01.935Z,30.21
2019-05-16T09:03:32.074Z,30.19
2019-05-16T09:06:02.807Z,31.65
2019-05-16T09:08:33.042Z,31.40
2019-05-16T09:10:41.537Z,31.47
2019-05-16T09:11:26.942Z,31.76
2019-05-16T09:16:39.050Z,32.40
2019-05-16T09:19:11.005Z,32.32
2019-05-16T09:21:40.393Z,32.20
2019-05-16T09:27:19.372Z,32.93
2019-05-16T09:29:49.142Z,31.91
2019-05-16T09:32:21.600Z,31.58
2019-05-16T09:34:50.206Z,31.20
2019-05-16T09:37:19.844Z,31.53
2019-05-16T09:39:49.262Z,32.44
2019-05-16T09:42:57.966Z,31.91
2019-05-16T09:45:28.292Z,32.16
2019-05-16T09:47:57.903Z,32.09
2019-05-16T09:51:06.850Z,32.26
2019-05-16T09:53:37.936Z,32.19
2019-05-16T09:56:07.509Z,32.09
2019-05-16T09:58:37.449Z,31.62
2019-05-16T10:04:23.531Z,31.27
2019-05-16T10:06:52.887Z,32.16
2019-05-16T10:09:38.561Z,31.59
2019-05-16T10:12:08.276Z,31.37
2019-05-16T10:15:07.509Z,31.44
2019-05-16T10:17:37.338Z,31.09
2019-05-16T10:23:36.372Z,30.79
2019-05-16T10:26:05.658Z,30.16
2019-05-16T10:28:38.448Z,31.55
2019-05-16T10:31:07.890Z,31.47
2019-05-16T10:33:58.121Z,31.89
2019-05-16T10:36:28.991Z,30.68
2019-05-16T10:42:22.050Z,31.36
2019-05-16T10:44:41.224Z,30.26
2019-05-16T10:47:10.649Z,30.77
2019-05-16T10:53:58.133Z,30.64
2019-05-16T10:56:00.165Z,30.19
2019-05-16T10:58:36.933Z,29.97
2019-05-16T11:01:27.354Z,30.20
2019-05-16T11:03:51.475Z,29.68
2019-05-16T11:09:09.649Z,29.67
2019-05-16T11:11:39.070Z,28.22
2019-05-16T11:14:09.288Z,28.89
2019-05-16T11:16:40.816Z,29.74
2019-05-16T11:19:18.147Z,29.98
2019-05-16T11:21:46.702Z,31.01
2019-05-16T11:24:16.059Z,31.36
2019-05-16T11:26:47.371Z,30.92
2019-05-16T11:29:17.180Z,30.90
2019-05-16T11:31:48.250Z,30.14
2019-05-16T11:34:17.752Z,30.64
2019-05-16T11:39:42.930Z,31.16
2019-05-16T11:42:12.311Z,32.31
2019-05-16T11:44:41.884Z,31.18
2019-05-16T11:47:11.286Z,30.77
2019-05-16T11:50:00.146Z,30.75
2019-05-16T11:52:30.491Z,30.19
2019-05-16T11:55:00.039Z,30.52
2019-05-16T11:57:29.587Z,30.82
2019-05-16T11:59:59.399Z,30.11
2019-05-16T12:02:29.122Z,29.82
2019-05-16T12:04:58.697Z,30.23
2019-05-16T12:07:33.689Z,30.34
2019-05-16T12:09:59.831Z,30.27
2019-05-16T12:12:29.227Z,29.99
2019-05-16T12:14:58.597Z,29.92
2019-05-16T12:17:28.162Z,29.76
2019-05-16T12:19:57.724Z,28.91
2019-05-16T12:22:27.170Z,29.25
2019-05-16T12:24:57.389Z,29.22
2019-05-16T12:27:32.712Z,29.51
2019-05-16T12:29:59.364Z,30.31
2019-05-16T12:32:28.966Z,30.50
2019-05-16T12:34:58.406Z,30.23
2019-05-16T12:40:03.953Z,29.85
2019-05-16T12:42:36.335Z,30.34
2019-05-16T12:48:20.701Z,31.09
2019-05-16T12:50:50.036Z,31.30
2019-05-16T12:53:23.534Z,31.47
2019-05-16T12:55:50.942Z,31.78
2019-05-16T12:58:26.052Z,31.77
2019-05-16T13:00:57.848Z,31.94
2019-05-16T13:03:24.300Z,32.33
2019-05-16T13:05:53.854Z,32.24
2019-05-16T13:08:26.615Z,32.21
2019-05-16T13:10:57.790Z,32.11
2019-05-16T13:13:38.287Z,32.40
2019-05-16T13:16:07.961Z,32.34
2019-05-16T13:21:27.619Z,32.49
2019-05-16T13:23:57.851Z,32.72
2019-05-16T13:26:27.430Z,33.10
2019-05-16T13:28:57.828Z,33.24
2019-05-16T13:31:28.974Z,33.12
2019-05-16T13:33:59.949Z,33.66
2019-05-16T13:36:32.193Z,33.88
2019-05-16T13:39:01.693Z,33.80
2019-05-16T13:41:34.504Z,33.39
2019-05-16T13:44:17.603Z,33.57
2019-05-16T13:46:37.180Z,33.01
2019-05-16T13:49:07.734Z,33.66
2019-05-16T13:51:37.451Z,33.49
2019-05-16T13:54:20.471Z,33.44
2019-05-16T13:56:50.407Z,32.81
2019-05-16T13:59:20.173Z,32.88
2019-05-16T14:01:49.562Z,32.12
2019-05-16T14:04:19.023Z,31.38
2019-05-16T14:06:48.515Z,30.99
2019-05-16T14:09:17.918Z,29.91
2019-05-16T14:11:47.500Z,29.44
2019-05-16T14:14:33.162Z,29.62
2019-05-16T14:16:48.612Z,30.37
2019-05-16T14:19:18.608Z,30.73
2019-05-16T14:21:48.098Z,31.25
2019-05-16T14:24:18.148Z,31.30
2019-05-16T14:26:49.182Z,31.23
2019-05-16T14:29:19.141Z,31.39
2019-05-16T14:31:48.703Z,31.76
2019-05-16T14:34:18.508Z,32.32
2019-05-16T14:36:49.829Z,32.15
2019-05-16T14:39:19.977Z,32.46
2019-05-16T14:41:50.818Z,31.84
2019-05-16T14:44:20.280Z,31.98
2019-05-16T14:46:49.684Z,30.64
2019-05-16T14:49:19.615Z,27.10
2019-05-16T14:51:49.258Z,24.89
2019-05-16T14:54:18.752Z,23.96
2019-05-16T14:56:49.028Z,22.82
2019-05-16T14:59:18.441Z,22.36
2019-05-16T15:01:47.887Z,22.16
2019-05-16T15:04:17.575Z,24.39
2019-05-16T15:06:47.226Z,24.57
2019-05-16T15:09:18.532Z,25.81
2019-05-16T15:11:49.698Z,27.44
2019-05-16T15:14:19.165Z,28.57
2019-05-16T15:16:51.748Z,29.84
2019-05-16T15:19:20.344Z,30.10
2019-05-16T15:21:49.756Z,29.60
2019-05-16T15:24:19.254Z,30.21
2019-05-16T15:26:48.765Z,30.39
2019-05-16T15:29:18.218Z,30.74
2019-05-16T15:31:47.634Z,31.02
2019-05-16T15:34:17.080Z,31.89
2019-05-16T15:36:46.950Z,31.99
2019-05-16T15:42:27.718Z,32.55
2019-05-16T15:44:58.664Z,32.66
2019-05-16T15:47:29.094Z,32.85
2019-05-16T15:49:59.847Z,33.10
2019-05-16T15:55:47.078Z,33.08
2019-05-16T15:58:37.384Z,33.28
2019-05-16T16:01:07.646Z,33.81
2019-05-16T16:03:38.149Z,33.49
2019-05-16T16:06:08.262Z,33.61
2019-05-16T16:08:37.702Z,33.83
2019-05-16T16:11:07.742Z,33.93
2019-05-16T16:13:37.747Z,34.17
2019-05-16T16:16:10.087Z,34.49
2019-05-16T16:18:38.979Z,34.63
2019-05-16T16:21:08.359Z,34.65
2019-05-16T16:23:37.798Z,34.51
2019-05-16T16:26:07.516Z,35.06
2019-05-16T16:28:50.969Z,35.50
2019-05-16T16:31:21.374Z,36.75
2019-05-16T16:33:50.857Z,36.62
2019-05-16T16:36:20.315Z,36.88
2019-05-16T16:38:49.809Z,37.53
2019-05-16T16:41:19.400Z,37.91
2019-05-16T16:43:49.011Z,38.43
2019-05-16T16:46:18.881Z,38.33
2019-05-16T16:48:48.221Z,38.46
2019-05-16T16:51:17.899Z,38.92
2019-05-16T16:53:49.925Z,38.61
2019-05-16T16:56:19.427Z,38.77
2019-05-16T16:58:49.624Z,38.91
2019-05-16T17:04:50.934Z,39.28
2019-05-16T17:07:38.449Z,39.57
2019-05-16T17:13:11.711Z,39.44
2019-05-16T17:15:42.240Z,39.41
2019-05-16T17:20:59.761Z,39.70
2019-05-16T17:23:29.367Z,39.80
2019-05-16T17:25:58.881Z,40.04
2019-05-16T17:28:28.366Z,40.20
2019-05-16T17:30:58.299Z,40.06
2019-05-16T17:36:29.596Z,40.32
2019-05-16T17:38:59.363Z,40.32
2019-05-16T17:41:29.587Z,40.51
2019-05-16T17:43:58.955Z,40.36
2019-05-16T17:46:37.321Z,40.55
2019-05-16T17:49:00.435Z,40.48
2019-05-16T17:51:29.891Z,40.53
2019-05-16T17:53:59.265Z,40.53
2019-05-16T17:57:08.749Z,40.59
2019-05-16T17:59:38.308Z,40.77
2019-05-16T18:02:07.789Z,40.72
2019-05-16T18:04:40.853Z,40.87
2019-05-16T18:07:10.898Z,40.87
2019-05-16T18:12:51.718Z,41.14
2019-05-16T18:15:41.333Z,41.34
2019-05-16T18:18:11.318Z,41.43
2019-05-16T18:20:54.487Z,41.51
2019-05-16T18:23:23.304Z,41.73
2019-05-16T18:28:42.838Z,41.64
2019-05-16T18:31:12.303Z,41.60
2019-05-16T18:33:41.764Z,41.89
2019-05-16T18:36:11.270Z,42.18
2019-05-16T18:39:20.109Z,42.46
2019-05-16T18:41:50.010Z,42.49
2019-05-16T18:44:20.058Z,42.37
2019-05-16T18:49:47.355Z,42.51
2019-05-16T18:52:17.862Z,42.82
2019-05-16T18:55:27.016Z,43.20
2019-05-16T18:57:57.554Z,43.46
2019-05-16T19:00:27.908Z,43.62
2019-05-16T19:02:59.366Z,43.97
2019-05-16T19:05:49.230Z,44.12
2019-05-16T19:08:19.862Z,44.39
2019-05-16T19:10:50.848Z,44.80
2019-05-16T19:13:20.369Z,45.11
2019-05-16T19:16:29.774Z,45.38
2019-05-16T19:18:59.070Z,45.46
2019-05-16T19:21:28.609Z,45.74
2019-05-16T19:24:01.845Z,46.13
2019-05-16T19:26:31.713Z,46.33
2019-05-16T19:29:02.831Z,46.64
2019-05-16T19:34:49.246Z,47.15
2019-05-16T19:37:40.657Z,47.44
2019-05-16T19:40:48.798Z,47.69
2019-05-16T19:43:18.325Z,47.95
2019-05-16T19:45:47.860Z,48.22
2019-05-16T19:48:17.863Z,48.71
2019-05-16T19:51:26.962Z,48.98
2019-05-16T19:53:58.997Z,49.15
2019-05-16T19:59:44.377Z,49.88
2019-05-16T20:05:23.596Z,50.31
2019-05-16T20:08:32.572Z,50.73
2019-05-16T20:11:02.147Z,51.01
2019-05-16T20:16:41.482Z,51.33
2019-05-16T20:19:10.891Z,51.50
2019-05-16T20:25:02.338Z,51.95
2019-05-16T20:27:31.851Z,52.12
2019-05-16T20:30:42.483Z,52.83
2019-05-16T20:36:28.985Z,52.93
2019-05-16T20:38:58.471Z,53.17
2019-05-16T20:41:28.336Z,53.47
2019-05-16T20:43:58.318Z,53.62
2019-05-16T20:46:49.732Z,53.81
2019-05-16T20:49:19.477Z,54.22
2019-05-16T20:51:50.015Z,54.41
2019-05-16T20:54:20.594Z,55.05
2019-05-16T21:00:18.238Z,55.04
2019-05-16T21:02:49.515Z,54.91
2019-05-16T21:05:58.626Z,55.30
2019-05-16T21:11:39.422Z,56.02
2019-05-16T21:14:09.089Z,56.09
2019-05-16T21:16:38.815Z,56.44
2019-05-16T21:19:08.257Z,57.64
2019-05-16T21:21:37.774Z,57.44
2019-05-16T21:27:19.063Z,57.76
2019-05-16T21:29:48.656Z,57.85
2019-05-16T21:32:18.101Z,58.39
2019-05-16T21:34:48.150Z,58.91
2019-05-16T21:37:57.352Z,59.33
2019-05-16T21:40:26.922Z,59.45
2019-05-16T21:42:58.720Z,59.66
2019-05-16T21:45:28.687Z,59.95
2019-05-16T21:48:00.580Z,60.21
2019-05-16T21:50:49.332Z,60.08
2019-05-16T21:53:31.980Z,60.47
2019-05-16T21:56:01.364Z,60.91
2019-05-16T21:58:30.895Z,60.98
2019-05-16T22:01:39.610Z,61.17
2019-05-16T22:04:09.011Z,61.51
2019-05-16T22:06:38.376Z,62.11
2019-05-16T22:09:47.682Z,62.92
2019-05-16T22:12:17.442Z,62.83
2019-05-16T22:14:52.895Z,62.53
2019-05-16T22:17:22.370Z,62.81
2019-05-16T22:20:00.325Z,62.65
2019-05-16T22:23:09.197Z,63.22
2019-05-16T22:26:18.435Z,62.74
2019-05-16T22:28:49.603Z,63.53
2019-05-16T22:31:19.351Z,63.11
2019-05-16T22:34:28.545Z,63.86
2019-05-16T22:36:57.936Z,64.38
2019-05-16T22:39:28.195Z,64.70
2019-05-16T22:41:57.775Z,64.69
2019-05-16T22:47:48.336Z,64.39
2019-05-16T22:53:44.930Z,64.72
2019-05-16T22:56:14.460Z,64.37
2019-05-16T23:01:39.520Z,64.66
2019-05-16T23:07:18.168Z,64.42
2019-05-16T23:09:47.537Z,64.30
2019-05-16T23:12:17.497Z,64.43
2019-05-16T23:14:48.890Z,64.27
2019-05-16T23:17:18.301Z,64.60
2019-05-16T23:20:27.745Z,64.52
2019-05-16T23:22:58.366Z,64.45
2019-05-16T23:25:28.133Z,64.63
2019-05-16T23:27:57.712Z,64.52
2019-05-16T23:30:27.340Z,64.52
2019-05-16T23:32:58.310Z,64.78
2019-05-16T23:38:20.050Z,64.89
2019-05-16T23:41:07.281Z,65.17
2019-05-16T23:43:37.565Z,65.18
2019-05-16T23:46:08.523Z,65.02
2019-05-16T23:48:38.075Z,64.92
2019-05-16T23:51:07.983Z,64.92
2019-05-16T23:53:40.175Z,65.18
2019-05-16T23:56:09.578Z,64.86
2019-05-16T23:59:18.655Z,64.92
